Pickleville, Utah
Current Conditions -  °F | °C
As of 12:51 PM on Friday 28 Nov 2014 (Local Time) from KLGU Reporting Station
Clear Clear  
Wind Chill: 56°   Ceiling: Unl
Heat Index: 56°   Visibility: 10mi
Dew Point: 30°   Wind: 10mph
Humidity: 37%   Direction: 20°NNE
Pressure: 29.91"   Gusts: NA
Location:  41.9408°N, 111.433°W
Report Text: KLGU 281951Z AUTO 02009KT 10SM CLR 13/M01 A2991 RMK AO2 SLP120 T01331011
Loading
Personal Weather Stations






























Interactive Weather Map New forecast layout! Learn more

10-Day Weather Forecast

Advertisements
Track Severe Weather on mobile